createdAt,value
2016-02-25T00:00:23.086Z,99.99
2016-02-25T00:01:23.059Z,99.99
2016-02-25T00:02:23.014Z,99.99
2016-02-25T00:03:22.984Z,99.99
2016-02-25T00:04:22.957Z,99.99
2016-02-25T00:05:22.928Z,99.99
2016-02-25T00:06:22.900Z,99.99
2016-02-25T00:07:22.870Z,99.99
2016-02-25T00:08:22.842Z,99.99
2016-02-25T00:09:22.798Z,99.99
2016-02-25T00:10:22.769Z,99.99
2016-02-25T00:11:22.742Z,99.99
2016-02-25T00:12:22.713Z,99.99
2016-02-25T00:13:22.683Z,99.99
2016-02-25T00:14:22.656Z,99.99
2016-02-25T00:15:22.611Z,99.99
2016-02-25T00:16:22.583Z,99.99
2016-02-25T00:17:22.555Z,99.99
2016-02-25T00:18:22.525Z,99.99
2016-02-25T00:19:22.497Z,99.99
2016-02-25T00:20:22.468Z,99.99
2016-02-25T00:21:22.425Z,99.99
2016-02-25T00:22:22.396Z,99.99
2016-02-25T00:23:22.382Z,99.99
2016-02-25T00:24:22.338Z,99.99
2016-02-25T00:25:22.310Z,99.99
2016-02-25T00:26:22.282Z,99.99
2016-02-25T00:27:22.254Z,99.99
2016-02-25T00:28:22.209Z,99.99
2016-02-25T00:29:22.179Z,99.99
2016-02-25T00:30:22.167Z,99.99
2016-02-25T00:31:22.123Z,99.99
2016-02-25T00:32:22.095Z,99.99
2016-02-25T00:33:22.065Z,99.99
2016-02-25T00:34:22.037Z,99.99
2016-02-25T00:35:22.009Z,99.99
2016-02-25T00:36:21.964Z,99.99
2016-02-25T00:37:21.937Z,99.99
2016-02-25T00:38:21.908Z,99.99
2016-02-25T00:39:21.879Z,99.99
2016-02-25T00:40:21.850Z,99.99
2016-02-25T00:41:21.822Z,99.99
2016-02-25T00:42:21.778Z,99.99
2016-02-25T00:43:21.749Z,99.99
2016-02-25T00:44:21.720Z,99.99
2016-02-25T00:45:21.692Z,99.99
2016-02-25T00:46:21.647Z,99.99
2016-02-25T00:47:21.620Z,99.99
2016-02-25T00:48:21.606Z,99.99
2016-02-25T00:49:21.563Z,99.99
2016-02-25T00:50:21.533Z,99.99
2016-02-25T00:51:21.505Z,99.99
2016-02-25T00:52:21.477Z,99.99
2016-02-25T00:53:21.448Z,99.99
2016-02-25T00:54:21.404Z,99.99
2016-02-25T00:55:21.374Z,99.99
2016-02-25T00:56:21.346Z,99.99
2016-02-25T00:57:21.318Z,99.99
2016-02-25T00:58:21.290Z,99.99
2016-02-25T00:59:21.245Z,99.99
2016-02-25T01:00:21.217Z,99.99
2016-02-25T01:01:21.188Z,99.99
2016-02-25T01:02:21.159Z,99.99
2016-02-25T01:03:21.131Z,99.99
2016-02-25T01:04:21.087Z,99.99
2016-02-25T01:05:21.058Z,99.99
2016-02-25T01:06:21.029Z,99.99
2016-02-25T01:07:21.001Z,99.99
2016-02-25T01:08:20.973Z,99.99
2016-02-25T01:09:20.944Z,99.99
2016-02-25T01:10:20.900Z,99.99
2016-02-25T01:11:20.872Z,99.99
2016-02-25T01:12:20.842Z,99.99
2016-02-25T01:13:20.814Z,99.99
2016-02-25T01:14:20.786Z,99.99
2016-02-25T01:15:20.741Z,99.99
2016-02-25T01:16:20.713Z,99.99
2016-02-25T01:17:20.684Z,99.99
2016-02-25T01:18:20.653Z,99.99
2016-02-25T01:19:20.624Z,99.99
2016-02-25T01:20:20.596Z,99.99
2016-02-25T01:21:20.552Z,99.99
2016-02-25T01:22:20.539Z,99.99
2016-02-25T01:23:20.494Z,99.99
2016-02-25T01:24:20.466Z,99.99
2016-02-25T01:25:20.438Z,99.99
2016-02-25T01:26:20.393Z,99.99
2016-02-25T01:27:20.365Z,99.99
2016-02-25T01:28:20.336Z,99.99
2016-02-25T01:29:20.308Z,99.99
2016-02-25T01:30:20.279Z,99.99
2016-02-25T01:31:20.251Z,99.99
2016-02-25T01:32:20.206Z,99.99
2016-02-25T01:33:20.193Z,99.99
2016-02-25T01:34:20.149Z,99.99
2016-02-25T01:35:20.121Z,99.99
2016-02-25T01:36:20.092Z,99.99
2016-02-25T01:37:20.048Z,99.99
2016-02-25T01:38:20.020Z,99.99
2016-02-25T01:39:19.990Z,99.99
2016-02-25T01:40:19.962Z,99.99
2016-02-25T01:41:19.934Z,99.99
2016-02-25T01:42:19.890Z,99.99
2016-02-25T01:43:19.861Z,99.99
2016-02-25T01:44:19.833Z,99.99
2016-02-25T01:45:19.804Z,99.99
2016-02-25T01:46:19.776Z,99.99
2016-02-25T01:47:19.747Z,99.99
2016-02-25T01:48:19.702Z,99.99
2016-02-25T01:49:19.674Z,99.99
2016-02-25T01:50:19.645Z,99.99
2016-02-25T01:51:19.617Z,99.99
2016-02-25T01:52:19.589Z,99.99
2016-02-25T01:53:19.544Z,99.99
2016-02-25T01:54:19.516Z,99.99
2016-02-25T01:55:19.487Z,99.99
2016-02-25T01:56:19.458Z,99.99
2016-02-25T01:57:19.430Z,99.99
2016-02-25T01:58:19.385Z,99.99
2016-02-25T01:59:19.357Z,99.99
2016-02-25T02:00:19.329Z,99.99
2016-02-25T02:01:19.299Z,99.99
2016-02-25T02:02:19.271Z,99.99
2016-02-25T02:03:19.243Z,99.99
2016-02-25T02:04:19.199Z,99.99
2016-02-25T02:05:19.171Z,99.99
2016-02-25T02:06:19.165Z,99.99
2016-02-25T02:07:19.119Z,99.99
2016-02-25T02:08:19.077Z,99.99
2016-02-25T02:09:19.054Z,99.99
2016-02-25T02:10:19.019Z,99.99
2016-02-25T02:11:18.975Z,99.99
2016-02-25T02:12:18.946Z,99.99
2016-02-25T02:13:18.917Z,99.99
2016-02-25T02:14:18.888Z,99.99
2016-02-25T02:15:18.860Z,99.99
2016-02-25T02:16:18.832Z,99.99
2016-02-25T02:17:18.788Z,99.99
2016-02-25T02:18:18.758Z,99.99
2016-02-25T02:19:18.730Z,99.99
2016-02-25T02:20:18.702Z,99.99
2016-02-25T02:21:18.658Z,99.99
2016-02-25T02:22:18.645Z,99.99
2016-02-25T02:23:18.601Z,99.99
2016-02-25T02:24:18.571Z,99.99
2016-02-25T02:25:18.543Z,99.99
2016-02-25T02:26:18.499Z,99.99
2016-02-25T02:27:18.470Z,99.99
2016-02-25T02:28:18.442Z,99.99
2016-02-25T02:29:18.413Z,99.99
2016-02-25T02:30:18.385Z,99.99
2016-02-25T02:31:18.356Z,99.99
2016-02-25T02:32:18.312Z,99.99
2016-02-25T02:33:18.284Z,99.99
2016-02-25T02:34:18.256Z,99.99
2016-02-25T02:35:18.226Z,99.99
2016-02-25T02:36:18.182Z,99.99
2016-02-25T02:37:18.154Z,99.99
2016-02-25T02:38:18.125Z,99.99
2016-02-25T02:39:18.097Z,99.99
2016-02-25T02:40:18.068Z,99.99
2016-02-25T02:41:18.039Z,99.99
2016-02-25T02:42:18.011Z,99.99
2016-02-25T02:43:17.967Z,99.99
2016-02-25T02:44:17.939Z,99.99
2016-02-25T02:45:17.910Z,99.99
2016-02-25T02:46:17.865Z,99.99
2016-02-25T02:47:17.837Z,99.99
2016-02-25T02:48:17.808Z,99.99
2016-02-25T02:49:17.780Z,99.99
2016-02-25T02:50:17.751Z,99.99
2016-02-25T02:51:17.722Z,99.99
2016-02-25T02:52:17.679Z,99.99
2016-02-25T02:53:17.649Z,99.99
2016-02-25T02:54:17.621Z,99.99
2016-02-25T02:55:17.593Z,99.99
2016-02-25T02:56:17.565Z,99.99
2016-02-25T02:57:17.520Z,99.99
2016-02-25T02:58:17.491Z,99.99
2016-02-25T02:59:17.462Z,99.99
2016-02-25T03:00:17.434Z,99.99
2016-02-25T03:01:17.389Z,99.99
2016-02-25T03:02:17.376Z,99.99
2016-02-25T03:03:17.348Z,99.99
2016-02-25T03:04:17.304Z,99.99
2016-02-25T03:05:17.264Z,99.99
2016-02-25T03:06:17.237Z,99.99
2016-02-25T03:07:17.208Z,99.99
2016-02-25T03:08:17.179Z,99.99
2016-02-25T03:09:17.151Z,99.99
2016-02-25T03:10:17.106Z,99.99
2016-02-25T03:11:17.078Z,99.99
2016-02-25T03:12:17.050Z,99.99
2016-02-25T03:13:17.021Z,99.99
2016-02-25T03:14:16.992Z,99.99
2016-02-25T03:15:16.948Z,99.99
2016-02-25T03:16:16.920Z,99.99
2016-02-25T03:17:16.891Z,99.99
2016-02-25T03:18:16.863Z,99.99
2016-02-25T03:19:16.834Z,99.99
2016-02-25T03:20:16.790Z,99.99
2016-02-25T03:21:16.761Z,99.99
2016-02-25T03:22:16.732Z,99.99
2016-02-25T03:23:16.705Z,99.99
2016-02-25T03:24:16.676Z,99.99
2016-02-25T03:25:16.647Z,99.99
2016-02-25T03:26:16.603Z,99.99
2016-02-25T03:27:16.574Z,99.99
2016-02-25T03:28:16.545Z,99.99
2016-02-25T03:29:16.517Z,99.99
2016-02-25T03:30:16.488Z,99.99
2016-02-25T03:31:16.445Z,99.99
2016-02-25T03:32:16.415Z,99.99
2016-02-25T03:33:16.387Z,99.99
2016-02-25T03:34:16.359Z,99.99
2016-02-25T03:35:16.315Z,99.99
2016-02-25T03:36:16.286Z,99.99
2016-02-25T03:37:16.258Z,99.99
2016-02-25T03:38:16.245Z,99.99
2016-02-25T03:39:16.200Z,99.99
2016-02-25T03:40:16.155Z,99.99
2016-02-25T03:41:16.127Z,99.99
2016-02-25T03:42:16.099Z,99.99
2016-02-25T03:43:16.070Z,99.99
2016-02-25T03:44:16.042Z,99.99
2016-02-25T03:45:15.998Z,99.99
2016-02-25T03:46:15.969Z,99.99
2016-02-25T03:47:15.940Z,99.99
2016-02-25T03:48:15.912Z,99.99
2016-02-25T03:49:15.868Z,99.99
2016-02-25T03:50:15.839Z,99.99
2016-02-25T03:51:15.826Z,99.99
2016-02-25T03:52:15.782Z,99.99
2016-02-25T03:53:15.800Z,99.99
2016-02-25T03:54:15.710Z,99.99
2016-02-25T03:55:15.681Z,99.99
2016-02-25T03:56:15.652Z,99.99
2016-02-25T03:57:15.623Z,99.99
2016-02-25T03:58:15.595Z,99.99
2016-02-25T03:59:15.551Z,99.99
2016-02-25T04:00:15.522Z,99.99
2016-02-25T04:01:15.493Z,99.99
2016-02-25T04:02:15.465Z,99.99
2016-02-25T04:03:15.421Z,99.99
2016-02-25T04:04:15.392Z,99.99
2016-02-25T04:05:15.367Z,99.99
2016-02-25T04:06:15.338Z,99.99
2016-02-25T04:07:15.295Z,99.99
2016-02-25T04:08:15.265Z,99.99
2016-02-25T04:09:15.236Z,99.99
2016-02-25T04:10:15.209Z,99.99
2016-02-25T04:11:15.164Z,99.99
2016-02-25T04:12:15.136Z,99.99
2016-02-25T04:13:15.107Z,99.99
2016-02-25T04:14:15.078Z,99.99
2016-02-25T04:15:15.050Z,99.99
2016-02-25T04:16:15.006Z,99.99
2016-02-25T04:17:14.977Z,99.99
2016-02-25T04:18:14.949Z,99.99
2016-02-25T04:19:14.920Z,99.99
2016-02-25T04:20:14.892Z,99.99
2016-02-25T04:21:14.847Z,99.99
2016-02-25T04:22:14.818Z,99.99
2016-02-25T04:23:14.790Z,99.99
2016-02-25T04:24:14.762Z,99.99
2016-02-25T04:25:14.717Z,99.99
2016-02-25T04:26:14.688Z,99.99
2016-02-25T04:27:14.661Z,99.99
2016-02-25T04:28:14.632Z,99.99
2016-02-25T04:29:14.587Z,99.99
2016-02-25T04:30:14.559Z,99.99
2016-02-25T04:31:14.531Z,99.99
2016-02-25T04:32:14.501Z,99.99
2016-02-25T04:33:14.473Z,99.99
2016-02-25T04:34:14.429Z,99.99
2016-02-25T04:35:14.400Z,99.99
2016-02-25T04:36:14.372Z,99.99
2016-02-25T04:37:14.328Z,99.99
2016-02-25T04:38:14.300Z,99.99
2016-02-25T04:39:14.270Z,99.99
2016-02-25T04:40:14.242Z,99.99
2016-02-25T04:41:14.214Z,99.99
2016-02-25T04:42:14.186Z,99.99
2016-02-25T04:43:14.141Z,99.99
2016-02-25T04:44:14.111Z,99.99
2016-02-25T04:45:14.084Z,99.99
2016-02-25T04:46:14.055Z,99.99
2016-02-25T04:47:14.011Z,99.99
2016-02-25T04:48:13.983Z,99.99
2016-02-25T04:49:13.954Z,99.99
2016-02-25T04:50:13.925Z,99.99
2016-02-25T04:51:13.881Z,99.99
2016-02-25T04:52:13.853Z,99.99
2016-02-25T04:53:13.824Z,99.99
2016-02-25T04:54:13.795Z,99.99
2016-02-25T04:55:13.751Z,99.99
2016-02-25T04:56:13.738Z,99.99
2016-02-25T04:57:13.693Z,99.99
2016-02-25T04:58:13.665Z,99.99
2016-02-25T04:59:13.637Z,99.99
2016-02-25T05:00:13.593Z,99.99
2016-02-25T05:01:13.565Z,99.99
2016-02-25T05:02:13.535Z,99.99
2016-02-25T05:03:13.507Z,99.99
2016-02-25T05:04:13.479Z,99.99
2016-02-25T05:05:13.434Z,99.99
2016-02-25T05:06:13.406Z,99.99
2016-02-25T05:07:13.378Z,99.99
2016-02-25T05:08:13.349Z,99.99
2016-02-25T05:09:13.304Z,99.99
2016-02-25T05:10:13.276Z,99.99
2016-02-25T05:11:13.248Z,99.99
2016-02-25T05:12:13.219Z,99.99
2016-02-25T05:13:13.175Z,99.99
2016-02-25T05:14:13.146Z,99.99
2016-02-25T05:15:13.118Z,99.99
2016-02-25T05:16:13.089Z,99.99
2016-02-25T05:17:13.045Z,99.99
2016-02-25T05:18:13.016Z,99.99
2016-02-25T05:19:12.988Z,99.99
2016-02-25T05:20:12.959Z,99.99
2016-02-25T05:21:12.931Z,99.99
2016-02-25T05:22:12.886Z,99.99
2016-02-25T05:23:12.905Z,99.99
2016-02-25T05:24:12.830Z,99.99
2016-02-25T05:25:12.801Z,99.99
2016-02-25T05:26:12.757Z,99.99
2016-02-25T05:27:12.728Z,99.99
2016-02-25T05:28:12.730Z,99.99
2016-02-25T05:29:12.671Z,99.99
2016-02-25T05:30:12.643Z,99.99
2016-02-25T05:31:12.614Z,99.99
2016-02-25T05:32:12.570Z,99.99
2016-02-25T05:33:12.540Z,99.99
2016-02-25T05:34:12.513Z,99.99
2016-02-25T05:35:12.468Z,99.99
2016-02-25T05:36:12.440Z,99.99
2016-02-25T05:37:12.412Z,99.99
2016-02-25T05:38:12.382Z,99.99
2016-02-25T05:39:12.354Z,99.99
2016-02-25T05:40:12.310Z,99.99
2016-02-25T05:41:12.282Z,99.99
2016-02-25T05:42:12.253Z,99.99
2016-02-25T05:43:12.224Z,99.99
2016-02-25T05:44:12.180Z,99.99
2016-02-25T05:45:12.151Z,99.99
2016-02-25T05:46:12.123Z,99.99
2016-02-25T05:47:12.094Z,99.99
2016-02-25T05:48:12.066Z,99.99
2016-02-25T05:49:12.021Z,99.99
2016-02-25T05:50:11.993Z,99.99
2016-02-25T05:51:11.964Z,99.99
2016-02-25T05:52:11.936Z,99.99
2016-02-25T05:53:11.907Z,99.99
2016-02-25T05:54:11.864Z,99.99
2016-02-25T05:55:11.834Z,99.99
2016-02-25T05:56:11.806Z,99.99
2016-02-25T05:57:11.777Z,99.99
2016-02-25T05:58:11.733Z,99.99
2016-02-25T05:59:11.705Z,99.99
2016-02-25T06:00:11.677Z,99.99
2016-02-25T06:01:11.648Z,99.99
2016-02-25T06:02:11.618Z,99.99
2016-02-25T06:03:11.574Z,99.99
2016-02-25T06:04:11.546Z,99.99
2016-02-25T06:05:11.518Z,99.99
2016-02-25T06:06:11.490Z,99.99
2016-02-25T06:07:11.460Z,99.99
2016-02-25T06:08:11.417Z,99.99
2016-02-25T06:09:11.387Z,99.99
2016-02-25T06:10:11.360Z,99.99
2016-02-25T06:11:11.331Z,99.99
2016-02-25T06:12:11.287Z,99.99
2016-02-25T06:13:11.258Z,99.99
2016-02-25T06:14:11.229Z,99.99
2016-02-25T06:15:11.201Z,99.99
2016-02-25T06:16:11.172Z,99.99
2016-02-25T06:17:11.128Z,99.99
2016-02-25T06:18:11.100Z,99.99
2016-02-25T06:19:11.072Z,99.99
2016-02-25T06:20:11.027Z,99.99
2016-02-25T06:21:10.998Z,99.99
2016-02-25T06:22:10.970Z,99.99
2016-02-25T06:23:10.941Z,99.99
2016-02-25T06:24:10.913Z,99.99
2016-02-25T06:25:10.869Z,99.99
2016-02-25T06:26:10.840Z,99.99
2016-02-25T06:27:10.811Z,99.99
2016-02-25T06:28:10.783Z,99.99
2016-02-25T06:29:10.739Z,99.99
2016-02-25T06:30:10.710Z,99.99
2016-02-25T06:31:10.682Z,99.99
2016-02-25T06:32:10.652Z,99.99
2016-02-25T06:33:10.624Z,99.99
2016-02-25T06:34:10.580Z,99.99
2016-02-25T06:35:10.551Z,99.99
2016-02-25T06:36:10.523Z,99.99
2016-02-25T06:37:10.495Z,99.99
2016-02-25T06:38:10.450Z,99.99
2016-02-25T06:39:10.421Z,99.99
2016-02-25T06:40:10.409Z,99.99
2016-02-25T06:41:10.365Z,99.99
2016-02-25T06:42:10.336Z,99.99
2016-02-25T06:43:10.292Z,99.99
2016-02-25T06:44:10.263Z,99.99
2016-02-25T06:45:10.235Z,99.99
2016-02-25T06:46:10.206Z,99.99
2016-02-25T06:47:10.162Z,99.99
2016-02-25T06:48:10.150Z,99.99
2016-02-25T06:49:10.105Z,99.99
2016-02-25T06:50:10.076Z,99.99
2016-02-25T06:51:10.047Z,99.99
2016-02-25T06:52:10.004Z,99.99
2016-02-25T06:53:09.975Z,99.99
2016-02-25T06:54:09.947Z,99.99
2016-02-25T06:55:09.919Z,99.99
2016-02-25T06:56:09.888Z,99.99
2016-02-25T06:57:09.845Z,99.99
2016-02-25T06:58:09.817Z,99.99
2016-02-25T06:59:09.783Z,99.99
2016-02-25T07:00:09.740Z,99.99
2016-02-25T07:01:09.695Z,99.99
2016-02-25T07:02:09.651Z,99.99
2016-02-25T07:03:09.592Z,99.99
2016-02-25T07:04:09.569Z,99.99
2016-02-25T07:05:09.521Z,99.99
2016-02-25T07:06:09.478Z,99.99
2016-02-25T07:07:09.459Z,99.99
2016-02-25T07:08:09.410Z,99.99
2016-02-25T07:09:09.393Z,99.99
2016-02-25T07:10:09.347Z,99.99
2016-02-25T07:11:09.316Z,99.99
2016-02-25T07:12:09.271Z,99.99
2016-02-25T07:13:09.240Z,99.99
2016-02-25T07:14:09.210Z,99.99
2016-02-25T07:15:09.181Z,99.99
2016-02-25T07:16:09.166Z,99.99
2016-02-25T07:17:09.107Z,99.99
2016-02-25T07:18:09.076Z,99.99
2016-02-25T07:19:09.048Z,99.99
2016-02-25T07:20:09.019Z,99.99
2016-02-25T07:21:08.992Z,99.99
2016-02-25T07:22:08.962Z,99.99
2016-02-25T07:23:08.919Z,99.99
2016-02-25T07:24:08.890Z,99.99
2016-02-25T07:25:08.860Z,99.99
2016-02-25T07:26:08.832Z,99.99
2016-02-25T07:27:08.804Z,99.99
2016-02-25T07:28:08.775Z,99.99
2016-02-25T07:29:08.730Z,99.99
2016-02-25T07:30:08.702Z,99.99
2016-02-25T07:31:08.674Z,99.99
2016-02-25T07:32:08.646Z,99.99
2016-02-25T07:33:08.617Z,99.99
2016-02-25T07:34:08.588Z,99.99
2016-02-25T07:35:08.560Z,99.99
2016-02-25T07:36:08.515Z,99.99
2016-02-25T07:37:08.487Z,99.99
2016-02-25T07:38:08.459Z,99.99
2016-02-25T07:39:08.430Z,99.99
2016-02-25T07:40:08.432Z,99.99
2016-02-25T07:41:08.373Z,99.99
2016-02-25T07:42:08.344Z,99.99
2016-02-25T07:43:08.315Z,99.99
2016-02-25T07:44:08.287Z,99.99
2016-02-25T07:45:08.259Z,99.99
2016-02-25T07:46:08.214Z,99.99
2016-02-25T07:47:08.186Z,99.99
2016-02-25T07:48:08.157Z,99.99
2016-02-25T07:49:08.128Z,99.99
2016-02-25T07:50:08.100Z,99.99
2016-02-25T07:51:08.071Z,99.99
2016-02-25T07:52:08.043Z,99.99
2016-02-25T07:53:08.014Z,99.99
2016-02-25T07:54:07.986Z,99.99
2016-02-25T07:55:07.957Z,99.99
2016-02-25T07:56:07.928Z,99.99
2016-02-25T07:57:07.885Z,99.99
2016-02-25T07:58:07.855Z,99.99
2016-02-25T07:59:07.828Z,99.99
2016-02-25T08:00:07.799Z,99.99
2016-02-25T08:01:07.771Z,99.99
2016-02-25T08:02:07.741Z,99.99
2016-02-25T08:03:07.713Z,99.99
2016-02-25T08:04:07.669Z,99.99
2016-02-25T08:05:07.657Z,99.99
2016-02-25T08:06:07.612Z,99.99
2016-02-25T08:07:07.583Z,99.99
2016-02-25T08:08:07.554Z,99.99
2016-02-25T08:09:07.526Z,99.99
2016-02-25T08:10:07.498Z,99.99
2016-02-25T08:11:07.469Z,99.99
2016-02-25T08:12:07.440Z,99.99
2016-02-25T08:13:07.412Z,99.99
2016-02-25T08:14:07.384Z,99.99
2016-02-25T08:15:07.339Z,99.99
2016-02-25T08:16:07.311Z,99.99
2016-02-25T08:17:07.281Z,99.99
2016-02-25T08:18:07.253Z,99.99
2016-02-25T08:19:07.225Z,99.99
2016-02-25T08:20:07.196Z,99.99
2016-02-25T08:21:07.168Z,99.99
2016-02-25T08:22:07.139Z,99.99
2016-02-25T08:23:07.111Z,99.99
2016-02-25T08:24:07.082Z,99.99
2016-02-25T08:25:07.038Z,99.99
2016-02-25T08:26:07.041Z,99.99
2016-02-25T08:27:07.012Z,99.99
2016-02-25T08:28:06.953Z,99.99
2016-02-25T08:29:06.955Z,99.99
2016-02-25T08:30:06.895Z,99.99
2016-02-25T08:31:06.866Z,99.99
2016-02-25T08:32:06.838Z,99.99
2016-02-25T08:33:06.809Z,99.99
2016-02-25T08:34:06.780Z,99.99
2016-02-25T08:35:06.752Z,99.99
2016-02-25T08:36:06.724Z,99.99
2016-02-25T08:37:06.680Z,99.99
2016-02-25T08:38:06.683Z,99.99
2016-02-25T08:39:06.638Z,99.99
2016-02-25T08:40:06.594Z,99.99
2016-02-25T08:41:06.566Z,99.99
2016-02-25T08:42:06.552Z,99.99
2016-02-25T08:43:06.508Z,99.99
2016-02-25T08:44:06.480Z,99.99
2016-02-25T08:45:06.451Z,99.99
2016-02-25T08:46:06.407Z,99.99
2016-02-25T08:47:06.395Z,99.99
2016-02-25T08:48:06.350Z,99.99
2016-02-25T08:49:06.321Z,99.99
2016-02-25T08:50:06.292Z,99.99
2016-02-25T08:51:06.264Z,99.99
2016-02-25T08:52:06.236Z,99.99
2016-02-25T08:53:06.206Z,99.99
2016-02-25T08:54:06.194Z,99.99
2016-02-25T08:55:06.150Z,99.99
2016-02-25T08:56:06.122Z,99.99
2016-02-25T08:57:06.093Z,99.99
2016-02-25T08:58:06.064Z,99.99
2016-02-25T08:59:06.036Z,99.99
2016-02-25T09:00:06.007Z,99.99
2016-02-25T09:01:05.963Z,99.99
2016-02-25T09:02:05.950Z,99.99
2016-02-25T09:03:05.905Z,99.99
2016-02-25T09:04:05.877Z,99.99
2016-02-25T09:05:05.849Z,99.99
2016-02-25T09:06:05.836Z,99.99
2016-02-25T09:07:05.792Z,99.99
2016-02-25T09:08:05.763Z,99.99
2016-02-25T09:09:05.734Z,99.99
2016-02-25T09:10:05.706Z,99.99
2016-02-25T09:11:05.677Z,99.99
2016-02-25T09:12:05.649Z,99.99
2016-02-25T09:13:05.620Z,99.99
2016-02-25T09:14:05.592Z,99.99
2016-02-25T09:15:05.562Z,99.99
2016-02-25T09:16:05.534Z,99.99
2016-02-25T09:17:05.506Z,99.99
2016-02-25T09:18:05.478Z,99.99
2016-02-25T09:19:05.449Z,99.99
2016-02-25T09:20:05.421Z,99.99
2016-02-25T09:21:05.392Z,99.99
2016-02-25T09:22:05.348Z,99.99
2016-02-25T09:23:05.367Z,99.99
2016-02-25T09:24:05.306Z,99.99
2016-02-25T09:25:05.262Z,99.99
2016-02-25T09:26:05.312Z,99.99
2016-02-25T09:27:05.314Z,99.99
2016-02-25T09:28:05.411Z,99.99
2016-02-25T09:29:05.148Z,99.99
2016-02-25T09:30:05.120Z,99.99
2016-02-25T09:31:05.106Z,99.99
2016-02-25T09:32:05.062Z,99.99
2016-02-25T09:33:05.065Z,99.99
2016-02-25T09:34:05.021Z,99.99
2016-02-25T09:35:04.978Z,99.99
2016-02-25T09:36:04.948Z,99.99
2016-02-25T09:37:04.936Z,99.99
2016-02-25T09:38:04.891Z,99.99
2016-02-25T09:39:04.863Z,99.99
2016-02-25T09:40:04.833Z,99.99
2016-02-25T09:41:04.821Z,99.99
2016-02-25T09:42:04.777Z,99.99
2016-02-25T09:43:04.764Z,99.99
2016-02-25T09:44:04.719Z,99.99
2016-02-25T09:45:04.691Z,99.99
2016-02-25T09:46:04.663Z,99.99
2016-02-25T09:47:04.635Z,99.99
2016-02-25T09:48:04.605Z,99.99
2016-02-25T09:49:04.577Z,99.99
2016-02-25T09:50:04.549Z,99.99
2016-02-25T09:51:04.535Z,99.99
2016-02-25T09:52:04.507Z,99.99
2016-02-25T09:53:04.479Z,99.99
2016-02-25T09:54:05.701Z,99.99
2016-02-25T09:55:04.421Z,99.99
2016-02-25T09:56:04.392Z,99.99
2016-02-25T09:57:04.365Z,99.99
2016-02-25T09:58:04.336Z,99.99
2016-02-25T09:59:04.307Z,99.99
2016-02-25T10:00:04.278Z,99.99
2016-02-25T10:01:04.250Z,99.99
2016-02-25T10:02:04.222Z,99.99
2016-02-25T10:03:04.193Z,99.99
2016-02-25T10:04:04.164Z,99.99
2016-02-25T10:05:04.136Z,99.99
2016-02-25T10:06:04.123Z,99.99
2016-02-25T10:07:04.094Z,99.99
2016-02-25T10:08:04.066Z,99.99
2016-02-25T10:09:04.037Z,99.99
2016-02-25T10:10:04.008Z,99.99
2016-02-25T10:11:03.980Z,99.99
2016-02-25T10:12:03.952Z,99.99
2016-02-25T10:13:03.938Z,99.99
2016-02-25T10:14:03.894Z,99.99
2016-02-25T10:15:03.882Z,99.99
2016-02-25T10:16:03.852Z,99.99
2016-02-25T10:17:03.824Z,99.99
2016-02-25T10:18:03.796Z,99.99
2016-02-25T10:19:03.768Z,99.99
2016-02-25T10:20:03.738Z,99.99
2016-02-25T10:21:03.710Z,99.99
2016-02-25T10:22:03.682Z,99.99
2016-02-25T10:23:03.653Z,99.99
2016-02-25T10:24:03.640Z,99.99
2016-02-25T10:25:03.627Z,99.99
2016-02-25T10:26:03.598Z,99.99
2016-02-25T10:27:03.554Z,99.99
2016-02-25T10:28:03.526Z,99.99
2016-02-25T10:29:03.512Z,99.99
2016-02-25T10:30:03.484Z,99.99
2016-02-25T10:31:03.456Z,99.99
2016-02-25T10:32:03.425Z,99.49
2016-02-25T10:33:03.396Z,99.49
2016-02-25T10:34:03.367Z,99.96
2016-02-25T10:35:03.339Z,99.99
2016-02-25T10:36:03.326Z,99.96
2016-02-25T10:37:03.297Z,99.99
2016-02-25T10:38:03.269Z,99.99
2016-02-25T10:39:03.239Z,99.99
2016-02-25T10:40:03.211Z,99.99
2016-02-25T10:41:03.183Z,99.99
2016-02-25T10:42:03.155Z,99.99
2016-02-25T10:43:03.126Z,99.99
2016-02-25T10:44:03.098Z,99.99
2016-02-25T10:45:03.085Z,99.99
2016-02-25T10:46:03.056Z,99.99
2016-02-25T10:47:03.028Z,99.99
2016-02-25T10:48:02.999Z,99.99
2016-02-25T10:49:02.986Z,99.99
2016-02-25T10:50:02.957Z,99.99
2016-02-25T10:51:02.913Z,99.99
2016-02-25T10:52:02.885Z,99.99
2016-02-25T10:53:02.872Z,99.99
2016-02-25T10:54:02.843Z,99.99
2016-02-25T10:55:02.815Z,99.99
2016-02-25T10:56:02.785Z,99.99
2016-02-25T10:57:02.757Z,99.99
2016-02-25T10:58:02.729Z,99.99
2016-02-25T10:59:02.700Z,99.99
2016-02-25T11:00:02.938Z,99.99
2016-02-25T11:01:02.753Z,99.99
2016-02-25T11:02:02.631Z,99.99
2016-02-25T11:03:02.602Z,99.99
2016-02-25T11:04:02.573Z,99.99
2016-02-25T11:05:02.546Z,99.99
2016-02-25T11:06:02.517Z,99.99
2016-02-25T11:07:02.504Z,99.99
2016-02-25T11:08:02.476Z,99.99
2016-02-25T11:09:02.446Z,99.99
2016-02-25T11:10:02.418Z,99.99
2016-02-25T11:11:02.406Z,99.99
2016-02-25T11:12:02.377Z,99.99
2016-02-25T11:13:02.348Z,99.99
2016-02-25T11:14:02.320Z,99.99
2016-02-25T11:15:02.307Z,99.99
2016-02-25T11:16:02.278Z,99.99
2016-02-25T11:17:02.250Z,99.99
2016-02-25T11:18:02.221Z,99.99
2016-02-25T11:19:02.208Z,99.99
2016-02-25T11:20:02.180Z,99.99
2016-02-25T11:21:02.151Z,99.99
2016-02-25T11:22:02.123Z,99.99
2016-02-25T11:23:02.094Z,99.99
2016-02-25T11:24:02.082Z,99.99
2016-02-25T11:25:02.053Z,99.99
2016-02-25T11:26:02.024Z,99.99
2016-02-25T11:27:02.012Z,99.99
2016-02-25T11:28:01.983Z,99.99
2016-02-25T11:29:01.955Z,99.83
2016-02-25T11:30:01.925Z,99.99
2016-02-25T11:31:01.913Z,99.99
2016-02-25T11:32:01.883Z,99.99
2016-02-25T11:33:01.871Z,99.44
2016-02-25T11:34:01.827Z,99.44
2016-02-25T11:35:01.814Z,99.35
2016-02-25T11:36:01.785Z,99.64
2016-02-25T11:37:01.758Z,98.79
2016-02-25T11:38:01.729Z,98.97
2016-02-25T11:39:01.716Z,99.35
2016-02-25T11:40:01.688Z,98.54
2016-02-25T11:41:01.658Z,99.3
2016-02-25T11:42:01.630Z,98.83
2016-02-25T11:43:01.618Z,99.02
2016-02-25T11:44:01.588Z,99.4
2016-02-25T11:45:01.576Z,99.3
2016-02-25T11:46:01.547Z,99.49
2016-02-25T11:47:01.518Z,99.21
2016-02-25T11:48:01.490Z,99.02
2016-02-25T11:49:01.461Z,99.4
2016-02-25T11:50:01.448Z,98.64
2016-02-25T11:51:01.420Z,99.77
2016-02-25T11:52:01.392Z,98.92
2016-02-25T11:53:01.378Z,99.4
2016-02-25T11:54:01.350Z,99.11
2016-02-25T11:55:01.320Z,99.21
2016-02-25T11:56:01.292Z,98.64
2016-02-25T11:57:01.264Z,98.83
2016-02-25T11:58:01.236Z,99.77
2016-02-25T11:59:01.254Z,99.4
2016-02-25T12:00:01.194Z,99.49
2016-02-25T12:01:01.181Z,99.49
2016-02-25T12:02:01.169Z,99.58
2016-02-25T12:03:01.124Z,99.68
2016-02-25T12:04:01.095Z,99.99
2016-02-25T12:05:01.082Z,99.99
2016-02-25T12:06:01.039Z,99.99
2016-02-25T12:07:01.025Z,99.99
2016-02-25T12:08:01.028Z,99.99
2016-02-25T12:09:00.969Z,99.99
2016-02-25T12:10:00.955Z,99.99
2016-02-25T12:11:00.927Z,99.99
2016-02-25T12:12:00.899Z,99.58
2016-02-25T12:13:00.870Z,99.99
2016-02-25T12:14:00.841Z,99.97
2016-02-25T12:15:00.829Z,99.92
2016-02-25T12:16:00.847Z,99.92
2016-02-25T12:17:00.771Z,99.44
2016-02-25T12:18:00.758Z,99.07
2016-02-25T12:19:00.730Z,99.4
2016-02-25T12:20:00.701Z,99.49
2016-02-25T12:21:00.673Z,99.26
2016-02-25T12:22:00.659Z,99.07
2016-02-25T12:23:00.631Z,99.73
2016-02-25T12:24:00.603Z,99.64
2016-02-25T12:25:00.573Z,99.54
2016-02-25T12:26:00.561Z,99.07
2016-02-25T12:27:00.531Z,99.07
2016-02-25T12:28:00.503Z,99.54
2016-02-25T12:29:00.491Z,99.07
2016-02-25T12:30:00.462Z,99.64
2016-02-25T12:31:00.434Z,99.83
2016-02-25T12:32:00.406Z,99.92
2016-02-25T12:33:00.392Z,98.88
2016-02-25T12:34:00.364Z,99.02
2016-02-25T12:35:00.366Z,99.02
2016-02-25T12:36:00.306Z,99.02
2016-02-25T12:37:00.294Z,98.83
2016-02-25T12:38:00.266Z,99.02
2016-02-25T12:39:00.237Z,99.21
2016-02-25T12:40:00.208Z,99.21
2016-02-25T12:41:00.195Z,99.58
2016-02-25T12:42:00.166Z,99.58
2016-02-25T12:43:00.138Z,99.3
2016-02-25T12:44:00.110Z,99.49
2016-02-25T12:45:00.080Z,99.3
2016-02-25T12:46:00.052Z,99.49
2016-02-25T12:47:00.039Z,99.58
2016-02-25T12:48:00.010Z,99.58
2016-02-25T12:48:59.982Z,99.99
2016-02-25T12:49:59.954Z,99.77
2016-02-25T12:50:59.926Z,99.97
2016-02-25T12:51:59.928Z,99.99